sensor_id;sensor_type;location;lat;lon;timestamp;temperature;humidity
11700;DHT22;5906;51.660;6.674;2023-06-04T00:02:07;12.00;99.90
11700;DHT22;5906;51.660;6.674;2023-06-04T00:04:34;11.90;99.90
11700;DHT22;5906;51.660;6.674;2023-06-04T00:07:01;11.90;99.90
11700;DHT22;5906;51.660;6.674;2023-06-04T00:09:27;11.90;99.90
11700;DHT22;5906;51.660;6.674;2023-06-04T00:11:55;11.90;99.90
11700;DHT22;5906;51.660;6.674;2023-06-04T00:14:23;11.90;99.90
11700;DHT22;5906;51.660;6.674;2023-06-04T00:16:50;11.90;99.90
11700;DHT22;5906;51.660;6.674;2023-06-04T00:19:17;11.80;99.90
11700;DHT22;5906;51.660;6.674;2023-06-04T00:21:45;11.80;99.90
11700;DHT22;5906;51.660;6.674;2023-06-04T00:24:12;11.80;99.90
11700;DHT22;5906;51.660;6.674;2023-06-04T00:26:40;11.70;99.90
11700;DHT22;5906;51.660;6.674;2023-06-04T00:29:06;11.70;99.90
11700;DHT22;5906;51.660;6.674;2023-06-04T00:31:33;11.60;99.90
11700;DHT22;5906;51.660;6.674;2023-06-04T00:34:01;11.60;99.90
11700;DHT22;5906;51.660;6.674;2023-06-04T00:36:28;11.50;99.90
11700;DHT22;5906;51.660;6.674;2023-06-04T00:38:55;11.50;99.90
11700;DHT22;5906;51.660;6.674;2023-06-04T00:41:22;11.50;99.90
11700;DHT22;5906;51.660;6.674;2023-06-04T00:43:49;11.40;99.90
11700;DHT22;5906;51.660;6.674;2023-06-04T00:46:24;11.40;99.90
11700;DHT22;5906;51.660;6.674;2023-06-04T00:48:52;11.40;99.90
11700;DHT22;5906;51.660;6.674;2023-06-04T00:51:21;11.30;99.90
11700;DHT22;5906;51.660;6.674;2023-06-04T00:53:50;11.30;99.90
11700;DHT22;5906;51.660;6.674;2023-06-04T00:56:17;11.20;99.90
11700;DHT22;5906;51.660;6.674;2023-06-04T00:58:44;11.20;99.90
11700;DHT22;5906;51.660;6.674;2023-06-04T01:01:38;11.20;99.90
11700;DHT22;5906;51.660;6.674;2023-06-04T01:04:16;11.20;99.90
11700;DHT22;5906;51.660;6.674;2023-06-04T01:06:49;11.10;99.90
11700;DHT22;5906;51.660;6.674;2023-06-04T01:09:17;11.10;99.90
11700;DHT22;5906;51.660;6.674;2023-06-04T01:11:45;11.10;99.90
11700;DHT22;5906;51.660;6.674;2023-06-04T01:14:12;11.00;99.90
11700;DHT22;5906;51.660;6.674;2023-06-04T01:16:55;11.00;99.90
11700;DHT22;5906;51.660;6.674;2023-06-04T01:22:10;10.90;99.90
11700;DHT22;5906;51.660;6.674;2023-06-04T01:24:45;10.90;99.90
11700;DHT22;5906;51.660;6.674;2023-06-04T01:27:19;10.90;99.90
11700;DHT22;5906;51.660;6.674;2023-06-04T01:29:47;10.90;99.90
11700;DHT22;5906;51.660;6.674;2023-06-04T01:32:17;10.80;99.90
11700;DHT22;5906;51.660;6.674;2023-06-04T01:34:45;10.70;99.90
11700;DHT22;5906;51.660;6.674;2023-06-04T01:37:12;10.70;99.90
11700;DHT22;5906;51.660;6.674;2023-06-04T01:39:40;10.60;99.90
11700;DHT22;5906;51.660;6.674;2023-06-04T01:42:08;10.60;99.90
11700;DHT22;5906;51.660;6.674;2023-06-04T01:44:36;10.50;99.90
11700;DHT22;5906;51.660;6.674;2023-06-04T01:47:03;10.40;99.90
11700;DHT22;5906;51.660;6.674;2023-06-04T01:49:31;10.40;99.90
11700;DHT22;5906;51.660;6.674;2023-06-04T01:51:58;10.40;99.90
11700;DHT22;5906;51.660;6.674;2023-06-04T01:54:25;10.40;99.90
11700;DHT22;5906;51.660;6.674;2023-06-04T01:56:53;10.40;99.90
11700;DHT22;5906;51.660;6.674;2023-06-04T01:59:19;10.30;99.90
11700;DHT22;5906;51.660;6.674;2023-06-04T02:01:47;10.30;99.90
11700;DHT22;5906;51.660;6.674;2023-06-04T02:04:14;10.20;99.90
11700;DHT22;5906;51.660;6.674;2023-06-04T02:06:41;10.20;99.90
11700;DHT22;5906;51.660;6.674;2023-06-04T02:09:08;10.10;99.90
11700;DHT22;5906;51.660;6.674;2023-06-04T02:11:38;10.10;99.90
11700;DHT22;5906;51.660;6.674;2023-06-04T02:14:05;10.00;99.90
11700;DHT22;5906;51.660;6.674;2023-06-04T02:16:32;10.00;99.90
11700;DHT22;5906;51.660;6.674;2023-06-04T02:18:59;9.90;99.90
11700;DHT22;5906;51.660;6.674;2023-06-04T02:21:27;9.90;99.90
11700;DHT22;5906;51.660;6.674;2023-06-04T02:23:54;9.80;99.90
11700;DHT22;5906;51.660;6.674;2023-06-04T02:26:21;9.80;99.90
11700;DHT22;5906;51.660;6.674;2023-06-04T02:28:50;9.80;99.90
11700;DHT22;5906;51.660;6.674;2023-06-04T02:31:17;9.70;99.90
11700;DHT22;5906;51.660;6.674;2023-06-04T02:33:44;9.60;99.90
11700;DHT22;5906;51.660;6.674;2023-06-04T02:36:11;9.60;99.90
11700;DHT22;5906;51.660;6.674;2023-06-04T02:38:40;9.50;99.90
11700;DHT22;5906;51.660;6.674;2023-06-04T02:41:07;9.50;99.90
11700;DHT22;5906;51.660;6.674;2023-06-04T02:43:36;9.40;99.90
11700;DHT22;5906;51.660;6.674;2023-06-04T02:46:03;9.30;99.90
11700;DHT22;5906;51.660;6.674;2023-06-04T02:48:30;9.30;99.90
11700;DHT22;5906;51.660;6.674;2023-06-04T02:50:57;9.30;99.90
11700;DHT22;5906;51.660;6.674;2023-06-04T02:53:24;9.20;99.90
11700;DHT22;5906;51.660;6.674;2023-06-04T02:55:51;9.20;99.90
11700;DHT22;5906;51.660;6.674;2023-06-04T02:58:20;9.10;99.90
11700;DHT22;5906;51.660;6.674;2023-06-04T03:00:52;9.10;99.90
11700;DHT22;5906;51.660;6.674;2023-06-04T03:03:20;9.00;99.90
11700;DHT22;5906;51.660;6.674;2023-06-04T03:05:47;9.00;99.90
11700;DHT22;5906;51.660;6.674;2023-06-04T03:08:14;9.00;99.90
11700;DHT22;5906;51.660;6.674;2023-06-04T03:10:42;9.00;99.90
11700;DHT22;5906;51.660;6.674;2023-06-04T03:13:09;9.00;99.90
11700;DHT22;5906;51.660;6.674;2023-06-04T03:15:36;9.00;99.90
11700;DHT22;5906;51.660;6.674;2023-06-04T03:18:06;9.00;99.90
11700;DHT22;5906;51.660;6.674;2023-06-04T03:20:34;9.00;99.90
11700;DHT22;5906;51.660;6.674;2023-06-04T03:23:05;9.00;99.90
11700;DHT22;5906;51.660;6.674;2023-06-04T03:25:32;9.00;99.90
11700;DHT22;5906;51.660;6.674;2023-06-04T03:27:59;9.00;99.90
11700;DHT22;5906;51.660;6.674;2023-06-04T03:30:26;8.90;99.90
11700;DHT22;5906;51.660;6.674;2023-06-04T03:32:53;8.90;99.90
11700;DHT22;5906;51.660;6.674;2023-06-04T03:35:20;8.90;99.90
11700;DHT22;5906;51.660;6.674;2023-06-04T03:37:47;8.90;99.90
11700;DHT22;5906;51.660;6.674;2023-06-04T03:40:14;8.90;99.90
11700;DHT22;5906;51.660;6.674;2023-06-04T03:42:41;8.80;99.90
11700;DHT22;5906;51.660;6.674;2023-06-04T03:45:09;8.80;99.90
11700;DHT22;5906;51.660;6.674;2023-06-04T03:47:37;8.90;99.90
11700;DHT22;5906;51.660;6.674;2023-06-04T03:50:05;8.80;99.90
11700;DHT22;5906;51.660;6.674;2023-06-04T03:52:33;8.90;99.90
11700;DHT22;5906;51.660;6.674;2023-06-04T03:55:00;8.80;99.90
11700;DHT22;5906;51.660;6.674;2023-06-04T03:57:28;8.80;99.90
11700;DHT22;5906;51.660;6.674;2023-06-04T03:59:55;8.90;99.90
11700;DHT22;5906;51.660;6.674;2023-06-04T04:02:22;8.80;99.90
11700;DHT22;5906;51.660;6.674;2023-06-04T04:04:49;8.80;99.90
11700;DHT22;5906;51.660;6.674;2023-06-04T04:07:16;8.90;99.90
11700;DHT22;5906;51.660;6.674;2023-06-04T04:09:43;8.90;99.90
11700;DHT22;5906;51.660;6.674;2023-06-04T04:12:11;8.90;99.90
11700;DHT22;5906;51.660;6.674;2023-06-04T04:14:38;9.00;99.90
11700;DHT22;5906;51.660;6.674;2023-06-04T04:17:05;9.00;99.90
11700;DHT22;5906;51.660;6.674;2023-06-04T04:19:32;9.00;99.90
11700;DHT22;5906;51.660;6.674;2023-06-04T04:21:59;9.10;99.90
11700;DHT22;5906;51.660;6.674;2023-06-04T04:24:27;9.20;99.90
11700;DHT22;5906;51.660;6.674;2023-06-04T04:26:55;9.20;99.90
11700;DHT22;5906;51.660;6.674;2023-06-04T04:29:22;9.30;99.90
11700;DHT22;5906;51.660;6.674;2023-06-04T04:31:51;9.40;99.90
11700;DHT22;5906;51.660;6.674;2023-06-04T04:34:19;9.50;99.90
11700;DHT22;5906;51.660;6.674;2023-06-04T04:36:48;9.70;99.90
11700;DHT22;5906;51.660;6.674;2023-06-04T04:39:24;9.80;99.90
11700;DHT22;5906;51.660;6.674;2023-06-04T04:41:51;9.90;99.90
11700;DHT22;5906;51.660;6.674;2023-06-04T04:44:19;10.00;99.90
11700;DHT22;5906;51.660;6.674;2023-06-04T04:46:48;10.10;99.90
11700;DHT22;5906;51.660;6.674;2023-06-04T04:49:15;10.50;99.90
11700;DHT22;5906;51.660;6.674;2023-06-04T04:51:42;11.00;99.90
11700;DHT22;5906;51.660;6.674;2023-06-04T04:54:09;11.50;99.90
11700;DHT22;5906;51.660;6.674;2023-06-04T04:56:36;12.00;99.90
11700;DHT22;5906;51.660;6.674;2023-06-04T04:59:04;12.50;99.90
11700;DHT22;5906;51.660;6.674;2023-06-04T05:01:31;12.90;99.90
11700;DHT22;5906;51.660;6.674;2023-06-04T05:03:58;13.20;99.90
11700;DHT22;5906;51.660;6.674;2023-06-04T05:06:28;13.50;99.90
11700;DHT22;5906;51.660;6.674;2023-06-04T05:08:55;13.80;99.90
11700;DHT22;5906;51.660;6.674;2023-06-04T05:11:22;14.10;99.90
11700;DHT22;5906;51.660;6.674;2023-06-04T05:13:49;14.10;99.90
11700;DHT22;5906;51.660;6.674;2023-06-04T05:16:16;14.30;99.90
11700;DHT22;5906;51.660;6.674;2023-06-04T05:18:47;14.40;99.90
11700;DHT22;5906;51.660;6.674;2023-06-04T05:21:14;14.60;99.90
11700;DHT22;5906;51.660;6.674;2023-06-04T05:23:41;14.90;99.90
11700;DHT22;5906;51.660;6.674;2023-06-04T05:26:09;15.10;99.90
11700;DHT22;5906;51.660;6.674;2023-06-04T05:28:36;15.40;99.90
11700;DHT22;5906;51.660;6.674;2023-06-04T05:31:05;15.40;99.90
11700;DHT22;5906;51.660;6.674;2023-06-04T05:33:35;15.50;99.90
11700;DHT22;5906;51.660;6.674;2023-06-04T05:36:02;15.80;99.90
11700;DHT22;5906;51.660;6.674;2023-06-04T05:38:29;15.60;99.90
11700;DHT22;5906;51.660;6.674;2023-06-04T05:40:57;15.60;99.90
11700;DHT22;5906;51.660;6.674;2023-06-04T05:43:24;15.70;99.90
11700;DHT22;5906;51.660;6.674;2023-06-04T05:45:51;16.00;99.90
11700;DHT22;5906;51.660;6.674;2023-06-04T05:48:19;16.30;99.90
11700;DHT22;5906;51.660;6.674;2023-06-04T05:50:46;16.30;99.90
11700;DHT22;5906;51.660;6.674;2023-06-04T05:53:14;16.40;99.90
11700;DHT22;5906;51.660;6.674;2023-06-04T05:55:41;16.60;99.60
11700;DHT22;5906;51.660;6.674;2023-06-04T05:58:08;16.80;97.00
11700;DHT22;5906;51.660;6.674;2023-06-04T06:00:35;17.00;98.90
11700;DHT22;5906;51.660;6.674;2023-06-04T06:03:02;17.10;96.10
11700;DHT22;5906;51.660;6.674;2023-06-04T06:05:29;17.40;95.90
11700;DHT22;5906;51.660;6.674;2023-06-04T06:07:57;17.80;94.50
11700;DHT22;5906;51.660;6.674;2023-06-04T06:10:24;18.00;91.30
11700;DHT22;5906;51.660;6.674;2023-06-04T06:12:51;18.10;87.40
11700;DHT22;5906;51.660;6.674;2023-06-04T06:15:19;18.20;87.30
11700;DHT22;5906;51.660;6.674;2023-06-04T06:17:46;18.30;88.30
11700;DHT22;5906;51.660;6.674;2023-06-04T06:20:13;18.40;84.20
11700;DHT22;5906;51.660;6.674;2023-06-04T06:22:44;18.40;83.80
11700;DHT22;5906;51.660;6.674;2023-06-04T06:25:12;18.60;83.10
11700;DHT22;5906;51.660;6.674;2023-06-04T06:27:42;18.60;78.80
11700;DHT22;5906;51.660;6.674;2023-06-04T06:30:10;18.70;79.30
11700;DHT22;5906;51.660;6.674;2023-06-04T06:32:37;19.00;67.70
11700;DHT22;5906;51.660;6.674;2023-06-04T06:35:05;19.20;65.20
11700;DHT22;5906;51.660;6.674;2023-06-04T06:37:34;19.40;62.60
11700;DHT22;5906;51.660;6.674;2023-06-04T06:40:01;19.60;53.10
11700;DHT22;5906;51.660;6.674;2023-06-04T06:42:32;19.80;56.30
11700;DHT22;5906;51.660;6.674;2023-06-04T06:45:00;19.90;52.60
11700;DHT22;5906;51.660;6.674;2023-06-04T06:47:27;20.00;50.60
11700;DHT22;5906;51.660;6.674;2023-06-04T06:49:54;20.20;42.90
11700;DHT22;5906;51.660;6.674;2023-06-04T06:52:21;20.30;42.90
11700;DHT22;5906;51.660;6.674;2023-06-04T06:54:48;20.50;39.20
11700;DHT22;5906;51.660;6.674;2023-06-04T06:57:16;20.50;32.10
11700;DHT22;5906;51.660;6.674;2023-06-04T06:59:43;20.70;27.80
11700;DHT22;5906;51.660;6.674;2023-06-04T07:02:10;20.60;22.60
11700;DHT22;5906;51.660;6.674;2023-06-04T07:04:37;20.60;21.90
11700;DHT22;5906;51.660;6.674;2023-06-04T07:07:04;20.40;20.50
11700;DHT22;5906;51.660;6.674;2023-06-04T07:09:32;20.30;20.90
11700;DHT22;5906;51.660;6.674;2023-06-04T07:11:59;20.30;25.70
11700;DHT22;5906;51.660;6.674;2023-06-04T07:14:26;20.30;21.50
11700;DHT22;5906;51.660;6.674;2023-06-04T07:16:53;20.50;23.40
11700;DHT22;5906;51.660;6.674;2023-06-04T07:19:20;20.70;22.10
11700;DHT22;5906;51.660;6.674;2023-06-04T07:21:47;20.90;17.50
11700;DHT22;5906;51.660;6.674;2023-06-04T07:24:14;20.90;11.80
11700;DHT22;5906;51.660;6.674;2023-06-04T07:26:41;21.10;14.70
11700;DHT22;5906;51.660;6.674;2023-06-04T07:29:08;21.10;12.40
11700;DHT22;5906;51.660;6.674;2023-06-04T07:31:35;21.00;12.10
11700;DHT22;5906;51.660;6.674;2023-06-04T07:34:02;21.20;16.40
11700;DHT22;5906;51.660;6.674;2023-06-04T07:36:29;21.50;13.50
11700;DHT22;5906;51.660;6.674;2023-06-04T07:38:58;21.70;10.40
11700;DHT22;5906;51.660;6.674;2023-06-04T07:41:25;21.70;8.30
11700;DHT22;5906;51.660;6.674;2023-06-04T07:43:55;21.90;11.10
11700;DHT22;5906;51.660;6.674;2023-06-04T07:46:22;22.00;7.20
11700;DHT22;5906;51.660;6.674;2023-06-04T07:48:49;22.20;9.10
11700;DHT22;5906;51.660;6.674;2023-06-04T07:51:16;22.40;8.40
11700;DHT22;5906;51.660;6.674;2023-06-04T07:53:45;22.50;5.70
11700;DHT22;5906;51.660;6.674;2023-06-04T07:56:12;22.70;5.50
11700;DHT22;5906;51.660;6.674;2023-06-04T07:58:39;22.70;5.10
11700;DHT22;5906;51.660;6.674;2023-06-04T08:01:07;23.00;8.20
11700;DHT22;5906;51.660;6.674;2023-06-04T08:03:35;23.30;6.40
11700;DHT22;5906;51.660;6.674;2023-06-04T08:06:03;23.60;1.20
11700;DHT22;5906;51.660;6.674;2023-06-04T08:08:30;23.70;1.00
11700;DHT22;5906;51.660;6.674;2023-06-04T08:10:58;23.80;1.00
11700;DHT22;5906;51.660;6.674;2023-06-04T08:13:25;23.80;1.00
11700;DHT22;5906;51.660;6.674;2023-06-04T08:15:52;23.50;1.00
11700;DHT22;5906;51.660;6.674;2023-06-04T08:18:20;23.40;1.00
11700;DHT22;5906;51.660;6.674;2023-06-04T08:20:47;23.80;1.00
11700;DHT22;5906;51.660;6.674;2023-06-04T08:23:14;23.90;1.00
11700;DHT22;5906;51.660;6.674;2023-06-04T08:25:42;23.90;1.00
11700;DHT22;5906;51.660;6.674;2023-06-04T08:28:09;24.00;1.00
11700;DHT22;5906;51.660;6.674;2023-06-04T08:30:36;23.80;1.00
11700;DHT22;5906;51.660;6.674;2023-06-04T08:33:04;23.70;1.00
11700;DHT22;5906;51.660;6.674;2023-06-04T08:35:31;23.90;1.00
11700;DHT22;5906;51.660;6.674;2023-06-04T08:37:58;24.50;1.00
11700;DHT22;5906;51.660;6.674;2023-06-04T08:40:26;24.70;1.00
11700;DHT22;5906;51.660;6.674;2023-06-04T08:42:56;24.50;1.00
11700;DHT22;5906;51.660;6.674;2023-06-04T08:45:25;24.40;1.00
11700;DHT22;5906;51.660;6.674;2023-06-04T08:47:54;24.30;1.00
11700;DHT22;5906;51.660;6.674;2023-06-04T08:50:23;24.40;1.00
11700;DHT22;5906;51.660;6.674;2023-06-04T08:52:54;24.70;1.00
11700;DHT22;5906;51.660;6.674;2023-06-04T08:55:22;25.10;1.00
11700;DHT22;5906;51.660;6.674;2023-06-04T08:57:50;25.30;1.00
11700;DHT22;5906;51.660;6.674;2023-06-04T09:00:20;25.50;1.00
11700;DHT22;5906;51.660;6.674;2023-06-04T09:02:50;25.30;1.00
11700;DHT22;5906;51.660;6.674;2023-06-04T09:05:20;25.00;1.00
11700;DHT22;5906;51.660;6.674;2023-06-04T09:07:53;24.70;1.00
11700;DHT22;5906;51.660;6.674;2023-06-04T09:10:24;24.40;1.00
11700;DHT22;5906;51.660;6.674;2023-06-04T09:12:54;24.50;1.00
11700;DHT22;5906;51.660;6.674;2023-06-04T09:15:21;24.60;1.00
11700;DHT22;5906;51.660;6.674;2023-06-04T09:17:48;24.50;1.00
11700;DHT22;5906;51.660;6.674;2023-06-04T09:20:22;24.50;1.00
11700;DHT22;5906;51.660;6.674;2023-06-04T09:22:50;24.70;1.00
11700;DHT22;5906;51.660;6.674;2023-06-04T09:25:22;24.60;1.00
11700;DHT22;5906;51.660;6.674;2023-06-04T09:27:53;24.70;1.00
11700;DHT22;5906;51.660;6.674;2023-06-04T09:30:22;24.90;1.00
11700;DHT22;5906;51.660;6.674;2023-06-04T09:32:49;24.90;1.00
11700;DHT22;5906;51.660;6.674;2023-06-04T09:35:18;25.10;1.00
11700;DHT22;5906;51.660;6.674;2023-06-04T09:37:53;25.20;1.00
11700;DHT22;5906;51.660;6.674;2023-06-04T09:40:21;25.50;1.00
11700;DHT22;5906;51.660;6.674;2023-06-04T09:42:49;25.40;1.00
11700;DHT22;5906;51.660;6.674;2023-06-04T09:45:32;25.30;1.00
11700;DHT22;5906;51.660;6.674;2023-06-04T09:48:00;25.10;1.00
11700;DHT22;5906;51.660;6.674;2023-06-04T09:50:31;25.00;1.00
11700;DHT22;5906;51.660;6.674;2023-06-04T09:52:58;24.90;1.00
11700;DHT22;5906;51.660;6.674;2023-06-04T09:55:27;25.10;1.00
11700;DHT22;5906;51.660;6.674;2023-06-04T09:57:54;25.50;1.00
11700;DHT22;5906;51.660;6.674;2023-06-04T10:00:23;25.70;1.00
11700;DHT22;5906;51.660;6.674;2023-06-04T10:03:01;25.90;1.00
11700;DHT22;5906;51.660;6.674;2023-06-04T10:05:31;25.80;1.00
11700;DHT22;5906;51.660;6.674;2023-06-04T10:08:03;26.00;1.00
11700;DHT22;5906;51.660;6.674;2023-06-04T10:10:34;26.20;1.00
11700;DHT22;5906;51.660;6.674;2023-06-04T10:13:06;26.50;1.00
11700;DHT22;5906;51.660;6.674;2023-06-04T10:15:35;26.50;1.00
11700;DHT22;5906;51.660;6.674;2023-06-04T10:18:03;26.50;1.00
11700;DHT22;5906;51.660;6.674;2023-06-04T10:20:31;26.50;1.00
11700;DHT22;5906;51.660;6.674;2023-06-04T10:22:59;26.60;1.00
11700;DHT22;5906;51.660;6.674;2023-06-04T10:25:27;26.50;1.00
11700;DHT22;5906;51.660;6.674;2023-06-04T10:27:55;26.10;1.00
11700;DHT22;5906;51.660;6.674;2023-06-04T10:30:23;26.10;1.00
11700;DHT22;5906;51.660;6.674;2023-06-04T10:32:50;26.00;1.00
11700;DHT22;5906;51.660;6.674;2023-06-04T10:35:17;26.00;1.00
11700;DHT22;5906;51.660;6.674;2023-06-04T10:37:45;25.90;1.00
11700;DHT22;5906;51.660;6.674;2023-06-04T10:40:14;25.80;1.00
11700;DHT22;5906;51.660;6.674;2023-06-04T10:42:42;25.90;1.00
11700;DHT22;5906;51.660;6.674;2023-06-04T10:45:10;26.10;1.00
11700;DHT22;5906;51.660;6.674;2023-06-04T10:47:37;25.80;1.00
11700;DHT22;5906;51.660;6.674;2023-06-04T10:50:13;26.00;1.00
11700;DHT22;5906;51.660;6.674;2023-06-04T10:52:54;26.30;1.00
11700;DHT22;5906;51.660;6.674;2023-06-04T10:55:21;26.30;1.00
11700;DHT22;5906;51.660;6.674;2023-06-04T10:58:07;26.40;1.00
11700;DHT22;5906;51.660;6.674;2023-06-04T11:00:39;26.60;1.00
11700;DHT22;5906;51.660;6.674;2023-06-04T11:03:09;26.50;1.00
11700;DHT22;5906;51.660;6.674;2023-06-04T11:05:45;26.30;1.00
11700;DHT22;5906;51.660;6.674;2023-06-04T11:08:13;26.40;1.00
11700;DHT22;5906;51.660;6.674;2023-06-04T11:10:44;26.70;1.00
11700;DHT22;5906;51.660;6.674;2023-06-04T11:13:12;26.70;1.00
11700;DHT22;5906;51.660;6.674;2023-06-04T11:15:41;26.50;1.00
11700;DHT22;5906;51.660;6.674;2023-06-04T11:18:22;26.10;1.00
11700;DHT22;5906;51.660;6.674;2023-06-04T11:21:00;26.30;1.00
11700;DHT22;5906;51.660;6.674;2023-06-04T11:23:28;26.70;1.00
11700;DHT22;5906;51.660;6.674;2023-06-04T11:25:55;27.00;1.00
11700;DHT22;5906;51.660;6.674;2023-06-04T11:28:22;27.20;1.00
11700;DHT22;5906;51.660;6.674;2023-06-04T11:33:23;27.10;1.00
11700;DHT22;5906;51.660;6.674;2023-06-04T11:35:50;27.00;1.00
11700;DHT22;5906;51.660;6.674;2023-06-04T11:38:17;26.90;1.00
11700;DHT22;5906;51.660;6.674;2023-06-04T11:40:58;26.60;1.00
11700;DHT22;5906;51.660;6.674;2023-06-04T11:43:26;26.20;1.00
11700;DHT22;5906;51.660;6.674;2023-06-04T11:45:53;26.20;1.00
11700;DHT22;5906;51.660;6.674;2023-06-04T11:48:21;26.40;1.00
11700;DHT22;5906;51.660;6.674;2023-06-04T11:50:48;26.60;1.00
11700;DHT22;5906;51.660;6.674;2023-06-04T11:53:15;27.00;1.00
11700;DHT22;5906;51.660;6.674;2023-06-04T11:55:43;27.20;1.00
11700;DHT22;5906;51.660;6.674;2023-06-04T11:58:10;27.10;1.00
11700;DHT22;5906;51.660;6.674;2023-06-04T12:00:37;27.30;1.00
11700;DHT22;5906;51.660;6.674;2023-06-04T12:03:04;26.90;1.00
11700;DHT22;5906;51.660;6.674;2023-06-04T12:05:32;26.70;1.00
11700;DHT22;5906;51.660;6.674;2023-06-04T12:08:05;26.80;1.00
11700;DHT22;5906;51.660;6.674;2023-06-04T12:10:38;26.90;1.00
11700;DHT22;5906;51.660;6.674;2023-06-04T12:13:06;26.80;1.00
11700;DHT22;5906;51.660;6.674;2023-06-04T12:15:33;26.90;1.00
11700;DHT22;5906;51.660;6.674;2023-06-04T12:18:00;26.90;1.00
11700;DHT22;5906;51.660;6.674;2023-06-04T12:23:03;27.20;1.00
11700;DHT22;5906;51.660;6.674;2023-06-04T12:25:32;27.00;1.00
11700;DHT22;5906;51.660;6.674;2023-06-04T12:28:00;27.30;1.00
11700;DHT22;5906;51.660;6.674;2023-06-04T12:30:39;27.70;1.00
11700;DHT22;5906;51.660;6.674;2023-06-04T12:33:07;28.10;1.00
11700;DHT22;5906;51.660;6.674;2023-06-04T12:35:35;28.10;1.00
11700;DHT22;5906;51.660;6.674;2023-06-04T12:38:05;28.30;1.00
11700;DHT22;5906;51.660;6.674;2023-06-04T12:40:35;28.20;1.00
11700;DHT22;5906;51.660;6.674;2023-06-04T12:43:02;28.10;1.00
11700;DHT22;5906;51.660;6.674;2023-06-04T12:45:30;27.80;1.00
11700;DHT22;5906;51.660;6.674;2023-06-04T12:47:57;27.90;1.00
11700;DHT22;5906;51.660;6.674;2023-06-04T12:50:24;28.10;1.00
11700;DHT22;5906;51.660;6.674;2023-06-04T12:52:51;28.10;1.00
11700;DHT22;5906;51.660;6.674;2023-06-04T12:55:18;28.00;1.00
11700;DHT22;5906;51.660;6.674;2023-06-04T12:57:45;27.60;1.00
11700;DHT22;5906;51.660;6.674;2023-06-04T13:00:13;27.40;1.00
11700;DHT22;5906;51.660;6.674;2023-06-04T13:02:41;27.20;1.00
11700;DHT22;5906;51.660;6.674;2023-06-04T13:05:08;27.40;1.00
11700;DHT22;5906;51.660;6.674;2023-06-04T13:07:35;27.50;1.00
11700;DHT22;5906;51.660;6.674;2023-06-04T13:10:02;27.40;1.00
11700;DHT22;5906;51.660;6.674;2023-06-04T13:12:29;27.30;1.00
11700;DHT22;5906;51.660;6.674;2023-06-04T13:14:56;27.30;1.00
11700;DHT22;5906;51.660;6.674;2023-06-04T13:17:23;27.50;1.00
11700;DHT22;5906;51.660;6.674;2023-06-04T13:19:50;27.60;1.00
11700;DHT22;5906;51.660;6.674;2023-06-04T13:22:18;27.70;1.00
11700;DHT22;5906;51.660;6.674;2023-06-04T13:24:45;27.50;1.00
11700;DHT22;5906;51.660;6.674;2023-06-04T13:27:12;27.50;1.00
11700;DHT22;5906;51.660;6.674;2023-06-04T13:29:40;27.60;1.00
11700;DHT22;5906;51.660;6.674;2023-06-04T13:32:10;28.00;1.00
11700;DHT22;5906;51.660;6.674;2023-06-04T13:34:37;27.90;1.00
11700;DHT22;5906;51.660;6.674;2023-06-04T13:37:04;27.80;1.00
11700;DHT22;5906;51.660;6.674;2023-06-04T13:39:32;27.80;1.00
11700;DHT22;5906;51.660;6.674;2023-06-04T13:42:00;27.60;1.00
11700;DHT22;5906;51.660;6.674;2023-06-04T13:44:27;27.50;1.00
11700;DHT22;5906;51.660;6.674;2023-06-04T13:46:57;27.70;1.00
11700;DHT22;5906;51.660;6.674;2023-06-04T13:49:24;27.90;1.00
11700;DHT22;5906;51.660;6.674;2023-06-04T13:51:51;28.00;1.00
11700;DHT22;5906;51.660;6.674;2023-06-04T13:54:18;27.90;1.00
11700;DHT22;5906;51.660;6.674;2023-06-04T13:56:46;27.70;1.00
11700;DHT22;5906;51.660;6.674;2023-06-04T13:59:13;27.50;1.00
11700;DHT22;5906;51.660;6.674;2023-06-04T14:01:40;27.50;1.00
11700;DHT22;5906;51.660;6.674;2023-06-04T14:04:07;27.50;1.00
11700;DHT22;5906;51.660;6.674;2023-06-04T14:06:35;27.30;1.00
11700;DHT22;5906;51.660;6.674;2023-06-04T14:09:03;27.20;1.00
11700;DHT22;5906;51.660;6.674;2023-06-04T14:11:32;27.20;1.00
11700;DHT22;5906;51.660;6.674;2023-06-04T14:14:00;27.30;1.00
11700;DHT22;5906;51.660;6.674;2023-06-04T14:16:27;27.60;1.00
11700;DHT22;5906;51.660;6.674;2023-06-04T14:18:54;27.90;1.00
11700;DHT22;5906;51.660;6.674;2023-06-04T14:21:21;28.00;1.00
11700;DHT22;5906;51.660;6.674;2023-06-04T14:23:49;28.20;1.00
11700;DHT22;5906;51.660;6.674;2023-06-04T14:26:17;28.20;1.00
11700;DHT22;5906;51.660;6.674;2023-06-04T14:28:45;28.20;1.00
11700;DHT22;5906;51.660;6.674;2023-06-04T14:31:12;28.40;1.00
11700;DHT22;5906;51.660;6.674;2023-06-04T14:33:39;28.50;1.00
11700;DHT22;5906;51.660;6.674;2023-06-04T14:36:06;28.40;1.00
11700;DHT22;5906;51.660;6.674;2023-06-04T14:38:33;27.90;1.00
11700;DHT22;5906;51.660;6.674;2023-06-04T14:41:00;27.70;1.00
11700;DHT22;5906;51.660;6.674;2023-06-04T14:43:27;27.70;1.00
11700;DHT22;5906;51.660;6.674;2023-06-04T14:45:54;27.60;1.00
11700;DHT22;5906;51.660;6.674;2023-06-04T14:48:22;27.30;1.00
11700;DHT22;5906;51.660;6.674;2023-06-04T14:50:49;27.30;1.00
11700;DHT22;5906;51.660;6.674;2023-06-04T14:53:20;27.10;1.00
11700;DHT22;5906;51.660;6.674;2023-06-04T14:55:47;26.90;1.00
11700;DHT22;5906;51.660;6.674;2023-06-04T14:58:15;27.00;1.00
11700;DHT22;5906;51.660;6.674;2023-06-04T15:00:42;27.10;1.00
11700;DHT22;5906;51.660;6.674;2023-06-04T15:03:09;27.40;1.00
11700;DHT22;5906;51.660;6.674;2023-06-04T15:05:36;27.50;1.00
11700;DHT22;5906;51.660;6.674;2023-06-04T15:08:04;27.70;1.00
11700;DHT22;5906;51.660;6.674;2023-06-04T15:10:31;27.70;1.00
11700;DHT22;5906;51.660;6.674;2023-06-04T15:13:00;27.60;1.00
11700;DHT22;5906;51.660;6.674;2023-06-04T15:15:27;27.30;1.00
11700;DHT22;5906;51.660;6.674;2023-06-04T15:17:54;27.60;1.00
11700;DHT22;5906;51.660;6.674;2023-06-04T15:20:21;27.60;1.00
11700;DHT22;5906;51.660;6.674;2023-06-04T15:22:51;27.30;1.00
11700;DHT22;5906;51.660;6.674;2023-06-04T15:25:19;27.30;1.00
11700;DHT22;5906;51.660;6.674;2023-06-04T15:27:46;27.60;1.00
11700;DHT22;5906;51.660;6.674;2023-06-04T15:30:13;27.40;1.00
11700;DHT22;5906;51.660;6.674;2023-06-04T15:32:40;27.40;1.00
11700;DHT22;5906;51.660;6.674;2023-06-04T15:35:08;27.10;1.00
11700;DHT22;5906;51.660;6.674;2023-06-04T15:37:35;26.90;1.00
11700;DHT22;5906;51.660;6.674;2023-06-04T15:40:04;26.60;1.00
11700;DHT22;5906;51.660;6.674;2023-06-04T15:42:33;26.50;1.00
11700;DHT22;5906;51.660;6.674;2023-06-04T15:45:00;26.50;1.00
11700;DHT22;5906;51.660;6.674;2023-06-04T15:47:28;26.40;1.00
11700;DHT22;5906;51.660;6.674;2023-06-04T15:49:55;26.40;1.00
11700;DHT22;5906;51.660;6.674;2023-06-04T15:52:22;26.40;1.00
11700;DHT22;5906;51.660;6.674;2023-06-04T15:54:49;26.40;1.00
11700;DHT22;5906;51.660;6.674;2023-06-04T15:57:16;26.30;1.00
11700;DHT22;5906;51.660;6.674;2023-06-04T15:59:43;26.30;1.00
11700;DHT22;5906;51.660;6.674;2023-06-04T16:02:10;26.20;1.00
11700;DHT22;5906;51.660;6.674;2023-06-04T16:04:37;26.10;1.00
11700;DHT22;5906;51.660;6.674;2023-06-04T16:07:04;26.20;1.00
11700;DHT22;5906;51.660;6.674;2023-06-04T16:09:32;26.20;1.00
11700;DHT22;5906;51.660;6.674;2023-06-04T16:11:59;26.00;1.00